Language selection

Weather shortcuts

Strait of Georgia - south of Nanaimo: Past 24 Hour Conditions

 

English Bay - 46304

10:00 AM PDT 21 May 2024Buoy position: 49.3N 123.36W
Disclaimer

This table is a summary of hourly weather conditions for the past 24 hours.
Please note that these observations might not always be representative of weather conditions over their associated marine area.

Date / Time
(PDT)
Wind(knots) Wave height(m) Wave period(s) Pressure(kPa) Air tempC) Water tempC)
21 May 2024
10:00 SE 22 gusts 25 0.75 3.1 101.6 10 13
9:00 SE 18 gusts 21 0.40 2.4 101.6 11 13
8:00 E 16 gusts 19 0.41 2.4 101.7 11 13
7:00 E 16 gusts 19 0.41 2.5 101.8 11 13
6:00 ENE 16 gusts 18 0.41 2.5 101.8 11 13
5:00 E 16 gusts 19 0.38 2.4 101.9 11 13
4:00 E 11 gusts 13 0.27 2.4 101.9 11 13
3:00 ESE 12 gusts 15 0.35 2.5 101.9 12 13
2:00 E 12 gusts 14 0.29 2.5 102.0 13 13
1:00 ESE 10 gusts 11 0.24 2.7 102.0 13 14
0:00 ESE 12 gusts 14 0.10 2.3 102.1 13 14
20 May 2024
23:00 ENE 5 gusts 8 0.15 4.9 102.1 14 14
22:00 NE 3 gusts 4 0.19 3.7 102.1 14 15
21:00 SE 3 gusts 4 0.18 2.7 102.1 14 15
20:00 SSE 5 gusts 5 0.18 2.5 102.1 14 15
19:00 SSE 6 gusts 8 0.18 2.9 102.2 14 16
18:00 SSE 8 gusts 9 0.20 3.5 102.2 14 16
17:00 SSE 8 gusts 9 0.21 3.0 102.3 14 16
16:00 SSE 6 gusts 8 0.22 3.0 102.3 14 16
15:00 S 5 gusts 6 0.26 2.9 102.4 13 16
14:00 SSW 6 gusts 7 0.24 3.2 102.4 13 15
13:00 S 5 gusts 6 0.26 3.3 102.4 12 15
12:00 WSW 5 gusts 7 0.28 3.1 102.5 12 14
11:00 WSW 7 gusts 9 0.32 3.6 102.5 12 14
10:00 SSE 1 gusts 2 0.36 3.4 102.5 12 13

Zoom-in to make a selection

Map of Pacific - Georgia Basin marine weather areas Sentry Shoal - 46131 Halibut Bank - 46146 La Perouse Bank - 46206 Georgia Strait - 46303 English Bay – 46304 Discovery Island Esquimalt Harbour Kelp Reefs Malahat Race Rocks Lightstation Saturna Island Sheringham Point University of Victoria Victoria Gonzales Victoria Int'l Airport Ballenas Islands Campbell River Airport Comox Airport Entrance Island Fanny Island Nanaimo Airport Sisters Islets Estevan Point Port Alberni Tofino Airport Grief Point Howe Sound - Pam Rocks Powell River Airport Sechelt Squamish Airport Point Atkinson Sand Heads Lightstation Tsawwassen Ferry Terminal Vancouver Int'l Airport Vancouver Harbour West Vancouver
Legend:
buoy Buoy
land station Land Station

Pacific - Georgia Basin Area

Another Region

Date modified: